sensor_id;sensor_type;location;lat;lon;timestamp;P1;durP1;ratioP1;P2;durP2;ratioP2
70457;SDS011;57919;56.194;95.716;2022-12-15T00:04:37;15.07;;;9.60;;
70457;SDS011;57919;56.194;95.716;2022-12-15T00:14:57;0.70;;;0.30;;
70457;SDS011;57919;56.194;95.716;2022-12-15T00:25:18;7.43;;;2.97;;
70457;SDS011;57919;56.194;95.716;2022-12-15T00:35:39;2.37;;;1.70;;
70457;SDS011;57919;56.194;95.716;2022-12-15T00:46:00;6.33;;;1.40;;
70457;SDS011;57919;56.194;95.716;2022-12-15T00:56:21;7.95;;;2.95;;
70457;SDS011;57919;56.194;95.716;2022-12-15T01:06:42;12.10;;;4.20;;
70457;SDS011;57919;56.194;95.716;2022-12-15T01:17:01;9.63;;;2.50;;
70457;SDS011;57919;56.194;95.716;2022-12-15T01:27:22;5.70;;;4.43;;
70457;SDS011;57919;56.194;95.716;2022-12-15T01:37:24;6.28;;;1.98;;
70457;SDS011;57919;56.194;95.716;2022-12-15T01:47:26;4.50;;;3.43;;
70457;SDS011;57919;56.194;95.716;2022-12-15T01:57:29;5.90;;;2.93;;
70457;SDS011;57919;56.194;95.716;2022-12-15T02:07:33;3.42;;;2.03;;
70457;SDS011;57919;56.194;95.716;2022-12-15T02:38:34;16.17;;;7.57;;
70457;SDS011;57919;56.194;95.716;2022-12-15T02:59:18;6.13;;;2.63;;
70457;SDS011;57919;56.194;95.716;2022-12-15T03:09:26;10.07;;;3.87;;
70457;SDS011;57919;56.194;95.716;2022-12-15T03:19:27;8.73;;;3.13;;
70457;SDS011;57919;56.194;95.716;2022-12-15T03:29:31;3.03;;;1.40;;
70457;SDS011;57919;56.194;95.716;2022-12-15T03:39:33;8.90;;;3.67;;
70457;SDS011;57919;56.194;95.716;2022-12-15T03:49:35;3.15;;;1.48;;
70457;SDS011;57919;56.194;95.716;2022-12-15T03:59:37;4.37;;;2.47;;
70457;SDS011;57919;56.194;95.716;2022-12-15T04:09:39;2.43;;;1.20;;
70457;SDS011;57919;56.194;95.716;2022-12-15T04:19:41;1.92;;;0.65;;
70457;SDS011;57919;56.194;95.716;2022-12-15T04:30:01;3.72;;;1.67;;
70457;SDS011;57919;56.194;95.716;2022-12-15T04:40:22;17.33;;;7.73;;
70457;SDS011;57919;56.194;95.716;2022-12-15T04:50:42;10.43;;;4.03;;
70457;SDS011;57919;56.194;95.716;2022-12-15T05:01:03;12.05;;;6.10;;
70457;SDS011;57919;56.194;95.716;2022-12-15T05:11:23;22.90;;;7.80;;
70457;SDS011;57919;56.194;95.716;2022-12-15T05:21:43;13.00;;;6.30;;
70457;SDS011;57919;56.194;95.716;2022-12-15T05:32:04;3.53;;;1.98;;
70457;SDS011;57919;56.194;95.716;2022-12-15T05:42:07;13.63;;;4.73;;
70457;SDS011;57919;56.194;95.716;2022-12-15T05:52:09;25.03;;;12.53;;
70457;SDS011;57919;56.194;95.716;2022-12-15T06:02:11;10.38;;;5.40;;
70457;SDS011;57919;56.194;95.716;2022-12-15T06:12:14;5.13;;;2.55;;
70457;SDS011;57919;56.194;95.716;2022-12-15T06:22:16;12.17;;;4.63;;
70457;SDS011;57919;56.194;95.716;2022-12-15T06:32:18;5.50;;;2.10;;
70457;SDS011;57919;56.194;95.716;2022-12-15T06:42:21;17.55;;;3.47;;
70457;SDS011;57919;56.194;95.716;2022-12-15T06:52:24;13.00;;;3.63;;
70457;SDS011;57919;56.194;95.716;2022-12-15T07:02:25;3.70;;;1.67;;
70457;SDS011;57919;56.194;95.716;2022-12-15T07:12:30;10.40;;;4.38;;
70457;SDS011;57919;56.194;95.716;2022-12-15T07:22:32;4.97;;;2.67;;
70457;SDS011;57919;56.194;95.716;2022-12-15T07:32:35;20.87;;;6.57;;
70457;SDS011;57919;56.194;95.716;2022-12-15T07:42:38;26.00;;;8.35;;
70457;SDS011;57919;56.194;95.716;2022-12-15T07:52:40;9.00;;;3.15;;
70457;SDS011;57919;56.194;95.716;2022-12-15T08:02:42;13.80;;;6.00;;
70457;SDS011;57919;56.194;95.716;2022-12-15T08:12:43;18.97;;;9.50;;
70457;SDS011;57919;56.194;95.716;2022-12-15T08:22:45;31.38;;;10.25;;
70457;SDS011;57919;56.194;95.716;2022-12-15T08:32:48;49.90;;;19.00;;
70457;SDS011;57919;56.194;95.716;2022-12-15T08:42:50;85.53;;;31.43;;
70457;SDS011;57919;56.194;95.716;2022-12-15T08:52:52;90.43;;;35.40;;
70457;SDS011;57919;56.194;95.716;2022-12-15T09:02:54;69.30;;;30.90;;
70457;SDS011;57919;56.194;95.716;2022-12-15T09:12:56;196.60;;;82.97;;
70457;SDS011;57919;56.194;95.716;2022-12-15T09:22:58;127.07;;;53.83;;
70457;SDS011;57919;56.194;95.716;2022-12-15T09:33:00;67.35;;;35.63;;
70457;SDS011;57919;56.194;95.716;2022-12-15T09:43:02;46.20;;;21.37;;
70457;SDS011;57919;56.194;95.716;2022-12-15T09:53:11;67.93;;;26.43;;
70457;SDS011;57919;56.194;95.716;2022-12-15T10:13:39;86.50;;;36.40;;
70457;SDS011;57919;56.194;95.716;2022-12-15T10:23:52;27.60;;;15.13;;
70457;SDS011;57919;56.194;95.716;2022-12-15T10:34:00;110.85;;;43.50;;
70457;SDS011;57919;56.194;95.716;2022-12-15T10:44:24;166.20;;;70.53;;
70457;SDS011;57919;56.194;95.716;2022-12-15T10:54:27;105.43;;;41.90;;
70457;SDS011;57919;56.194;95.716;2022-12-15T11:04:54;55.50;;;25.48;;
70457;SDS011;57919;56.194;95.716;2022-12-15T11:14:59;28.85;;;21.27;;
70457;SDS011;57919;56.194;95.716;2022-12-15T11:25:20;138.97;;;66.80;;
70457;SDS011;57919;56.194;95.716;2022-12-15T11:35:46;119.53;;;52.30;;
70457;SDS011;57919;56.194;95.716;2022-12-15T11:46:07;160.02;;;60.78;;
70457;SDS011;57919;56.194;95.716;2022-12-15T12:17:55;57.55;;;25.13;;
70457;SDS011;57919;56.194;95.716;2022-12-15T12:28:12;56.87;;;31.53;;
70457;SDS011;57919;56.194;95.716;2022-12-15T12:38:29;43.87;;;19.23;;
70457;SDS011;57919;56.194;95.716;2022-12-15T12:48:40;42.95;;;19.92;;
70457;SDS011;57919;56.194;95.716;2022-12-15T12:58:57;28.85;;;14.48;;
70457;SDS011;57919;56.194;95.716;2022-12-15T13:40:24;30.93;;;11.50;;
70457;SDS011;57919;56.194;95.716;2022-12-15T13:50:39;34.80;;;13.77;;
70457;SDS011;57919;56.194;95.716;2022-12-15T14:00:50;9.32;;;5.28;;
70457;SDS011;57919;56.194;95.716;2022-12-15T14:10:56;82.80;;;26.50;;
70457;SDS011;57919;56.194;95.716;2022-12-15T14:21:01;54.93;;;17.83;;
70457;SDS011;57919;56.194;95.716;2022-12-15T14:31:10;32.20;;;11.27;;
70457;SDS011;57919;56.194;95.716;2022-12-15T14:41:25;32.30;;;15.40;;
70457;SDS011;57919;56.194;95.716;2022-12-15T14:51:31;12.70;;;5.90;;
70457;SDS011;57919;56.194;95.716;2022-12-15T15:01:57;11.47;;;5.30;;
70457;SDS011;57919;56.194;95.716;2022-12-15T15:12:17;18.27;;;6.00;;
70457;SDS011;57919;56.194;95.716;2022-12-15T15:22:43;17.60;;;6.27;;
70457;SDS011;57919;56.194;95.716;2022-12-15T15:32:52;185.90;;;70.43;;
70457;SDS011;57919;56.194;95.716;2022-12-15T15:42:59;89.90;;;43.38;;
70457;SDS011;57919;56.194;95.716;2022-12-15T15:53:01;25.97;;;19.53;;
70457;SDS011;57919;56.194;95.716;2022-12-15T16:03:04;57.03;;;22.63;;
70457;SDS011;57919;56.194;95.716;2022-12-15T16:13:08;29.98;;;16.70;;
70457;SDS011;57919;56.194;95.716;2022-12-15T16:23:12;15.80;;;8.77;;
70457;SDS011;57919;56.194;95.716;2022-12-15T16:33:19;70.50;;;25.90;;
70457;SDS011;57919;56.194;95.716;2022-12-15T16:43:22;263.93;;;86.20;;
70457;SDS011;57919;56.194;95.716;2022-12-15T16:53:28;31.30;;;13.07;;
70457;SDS011;57919;56.194;95.716;2022-12-15T17:03:33;14.30;;;6.80;;
70457;SDS011;57919;56.194;95.716;2022-12-15T17:13:35;9.30;;;3.83;;
70457;SDS011;57919;56.194;95.716;2022-12-15T17:23:39;13.20;;;5.70;;
70457;SDS011;57919;56.194;95.716;2022-12-15T17:33:44;8.77;;;6.23;;
70457;SDS011;57919;56.194;95.716;2022-12-15T17:43:46;13.07;;;6.03;;
70457;SDS011;57919;56.194;95.716;2022-12-15T17:53:50;25.35;;;10.68;;
70457;SDS011;57919;56.194;95.716;2022-12-15T18:03:51;17.58;;;12.63;;
70457;SDS011;57919;56.194;95.716;2022-12-15T18:13:53;32.93;;;6.97;;
70457;SDS011;57919;56.194;95.716;2022-12-15T18:23:55;13.47;;;5.93;;
70457;SDS011;57919;56.194;95.716;2022-12-15T18:33:57;8.48;;;4.97;;
70457;SDS011;57919;56.194;95.716;2022-12-15T18:43:59;27.13;;;7.93;;
70457;SDS011;57919;56.194;95.716;2022-12-15T18:54:01;36.47;;;14.40;;
70457;SDS011;57919;56.194;95.716;2022-12-15T19:04:03;110.40;;;24.58;;
70457;SDS011;57919;56.194;95.716;2022-12-15T19:14:05;25.73;;;6.53;;
70457;SDS011;57919;56.194;95.716;2022-12-15T19:24:35;10.07;;;4.77;;
70457;SDS011;57919;56.194;95.716;2022-12-15T19:34:55;48.85;;;14.70;;
70457;SDS011;57919;56.194;95.716;2022-12-15T19:44:57;50.45;;;15.68;;
70457;SDS011;57919;56.194;95.716;2022-12-15T19:55:00;129.03;;;33.10;;
70457;SDS011;57919;56.194;95.716;2022-12-15T20:05:03;156.03;;;44.57;;
70457;SDS011;57919;56.194;95.716;2022-12-15T20:15:12;83.45;;;29.80;;
70457;SDS011;57919;56.194;95.716;2022-12-15T20:25:22;36.87;;;14.20;;
70457;SDS011;57919;56.194;95.716;2022-12-15T20:35:27;12.63;;;5.37;;
70457;SDS011;57919;56.194;95.716;2022-12-15T20:45:31;30.73;;;14.05;;
70457;SDS011;57919;56.194;95.716;2022-12-15T20:55:33;90.57;;;33.07;;
70457;SDS011;57919;56.194;95.716;2022-12-15T21:05:35;201.03;;;75.20;;
70457;SDS011;57919;56.194;95.716;2022-12-15T21:15:37;369.15;;;114.90;;
70457;SDS011;57919;56.194;95.716;2022-12-15T21:25:39;127.18;;;42.05;;
70457;SDS011;57919;56.194;95.716;2022-12-15T21:35:41;156.33;;;48.50;;
70457;SDS011;57919;56.194;95.716;2022-12-15T21:45:48;39.47;;;13.77;;
70457;SDS011;57919;56.194;95.716;2022-12-15T21:55:50;8.60;;;4.32;;
70457;SDS011;57919;56.194;95.716;2022-12-15T22:05:52;12.07;;;3.20;;
70457;SDS011;57919;56.194;95.716;2022-12-15T22:15:54;9.90;;;3.20;;
70457;SDS011;57919;56.194;95.716;2022-12-15T22:25:56;4.07;;;1.60;;
70457;SDS011;57919;56.194;95.716;2022-12-15T22:35:58;4.03;;;2.00;;
70457;SDS011;57919;56.194;95.716;2022-12-15T22:46:00;16.60;;;2.47;;
70457;SDS011;57919;56.194;95.716;2022-12-15T22:56:18;3.50;;;1.70;;
70457;SDS011;57919;56.194;95.716;2022-12-15T23:06:26;6.15;;;2.00;;
70457;SDS011;57919;56.194;95.716;2022-12-15T23:16:28;3.77;;;1.67;;
70457;SDS011;57919;56.194;95.716;2022-12-15T23:26:31;3.60;;;2.60;;
70457;SDS011;57919;56.194;95.716;2022-12-15T23:36:33;3.42;;;1.52;;
70457;SDS011;57919;56.194;95.716;2022-12-15T23:46:35;6.40;;;3.40;;
70457;SDS011;57919;56.194;95.716;2022-12-15T23:56:37;3.33;;;1.33;;
